sensor_id;sensor_type;location;lat;lon;timestamp;P1;durP1;ratioP1;P2;durP2;ratioP2
8938;SDS011;4504;48.810;9.172;2023-05-02T00:00:45;116.88;;;4.97;;
8938;SDS011;4504;48.810;9.172;2023-05-02T00:03:12;116.90;;;5.05;;
8938;SDS011;4504;48.810;9.172;2023-05-02T00:05:42;115.72;;;4.25;;
8938;SDS011;4504;48.810;9.172;2023-05-02T00:08:09;116.18;;;4.45;;
8938;SDS011;4504;48.810;9.172;2023-05-02T00:10:37;117.63;;;4.30;;
8938;SDS011;4504;48.810;9.172;2023-05-02T00:13:04;117.38;;;4.82;;
8938;SDS011;4504;48.810;9.172;2023-05-02T00:15:31;116.20;;;4.75;;
8938;SDS011;4504;48.810;9.172;2023-05-02T00:17:58;118.25;;;5.00;;
8938;SDS011;4504;48.810;9.172;2023-05-02T00:20:25;117.53;;;4.40;;
8938;SDS011;4504;48.810;9.172;2023-05-02T00:22:53;116.28;;;4.75;;
8938;SDS011;4504;48.810;9.172;2023-05-02T00:25:21;117.25;;;4.68;;
8938;SDS011;4504;48.810;9.172;2023-05-02T00:27:48;116.28;;;4.35;;
8938;SDS011;4504;48.810;9.172;2023-05-02T00:30:15;117.47;;;4.78;;
8938;SDS011;4504;48.810;9.172;2023-05-02T00:32:42;117.35;;;5.32;;
8938;SDS011;4504;48.810;9.172;2023-05-02T00:35:10;117.13;;;4.82;;
8938;SDS011;4504;48.810;9.172;2023-05-02T00:37:37;117.70;;;5.05;;
8938;SDS011;4504;48.810;9.172;2023-05-02T00:40:06;116.45;;;4.30;;
8938;SDS011;4504;48.810;9.172;2023-05-02T00:42:33;116.63;;;5.18;;
8938;SDS011;4504;48.810;9.172;2023-05-02T00:45:02;118.15;;;4.82;;
8938;SDS011;4504;48.810;9.172;2023-05-02T00:47:30;116.32;;;3.97;;
8938;SDS011;4504;48.810;9.172;2023-05-02T00:49:57;117.22;;;5.03;;
8938;SDS011;4504;48.810;9.172;2023-05-02T00:52:25;118.40;;;5.10;;
8938;SDS011;4504;48.810;9.172;2023-05-02T00:54:53;117.63;;;4.85;;
8938;SDS011;4504;48.810;9.172;2023-05-02T00:57:22;117.82;;;4.70;;
8938;SDS011;4504;48.810;9.172;2023-05-02T00:59:49;116.93;;;5.25;;
8938;SDS011;4504;48.810;9.172;2023-05-02T01:02:21;116.05;;;4.65;;
8938;SDS011;4504;48.810;9.172;2023-05-02T01:04:59;118.32;;;4.88;;
8938;SDS011;4504;48.810;9.172;2023-05-02T01:07:42;116.55;;;4.78;;
8938;SDS011;4504;48.810;9.172;2023-05-02T01:10:20;117.32;;;4.90;;
8938;SDS011;4504;48.810;9.172;2023-05-02T01:12:59;117.18;;;5.28;;
8938;SDS011;4504;48.810;9.172;2023-05-02T01:15:31;117.47;;;5.30;;
8938;SDS011;4504;48.810;9.172;2023-05-02T01:18:00;117.75;;;5.32;;
8938;SDS011;4504;48.810;9.172;2023-05-02T01:20:28;117.15;;;4.22;;
8938;SDS011;4504;48.810;9.172;2023-05-02T01:22:59;118.68;;;5.85;;
8938;SDS011;4504;48.810;9.172;2023-05-02T01:25:35;116.80;;;5.10;;
8938;SDS011;4504;48.810;9.172;2023-05-02T01:28:15;119.15;;;5.32;;
8938;SDS011;4504;48.810;9.172;2023-05-02T01:30:54;118.13;;;4.93;;
8938;SDS011;4504;48.810;9.172;2023-05-02T01:33:23;118.20;;;5.00;;
8938;SDS011;4504;48.810;9.172;2023-05-02T01:35:52;117.10;;;4.63;;
8938;SDS011;4504;48.810;9.172;2023-05-02T01:38:21;117.47;;;4.70;;
8938;SDS011;4504;48.810;9.172;2023-05-02T01:40:49;117.85;;;5.53;;
8938;SDS011;4504;48.810;9.172;2023-05-02T01:43:18;116.93;;;4.50;;
8938;SDS011;4504;48.810;9.172;2023-05-02T01:45:46;115.82;;;4.70;;
8938;SDS011;4504;48.810;9.172;2023-05-02T01:48:16;118.85;;;5.20;;
8938;SDS011;4504;48.810;9.172;2023-05-02T01:50:45;115.43;;;4.70;;
8938;SDS011;4504;48.810;9.172;2023-05-02T01:53:14;117.45;;;4.90;;
8938;SDS011;4504;48.810;9.172;2023-05-02T01:55:42;116.78;;;4.97;;
8938;SDS011;4504;48.810;9.172;2023-05-02T01:58:12;117.15;;;5.00;;
8938;SDS011;4504;48.810;9.172;2023-05-02T02:00:40;117.82;;;5.28;;
8938;SDS011;4504;48.810;9.172;2023-05-02T02:03:10;116.80;;;4.50;;
8938;SDS011;4504;48.810;9.172;2023-05-02T02:05:39;116.90;;;4.72;;
8938;SDS011;4504;48.810;9.172;2023-05-02T02:08:07;117.18;;;4.93;;
8938;SDS011;4504;48.810;9.172;2023-05-02T02:10:35;117.93;;;5.00;;
8938;SDS011;4504;48.810;9.172;2023-05-02T02:13:10;118.18;;;4.75;;
8938;SDS011;4504;48.810;9.172;2023-05-02T02:15:42;118.25;;;5.03;;
8938;SDS011;4504;48.810;9.172;2023-05-02T02:18:12;117.10;;;5.00;;
8938;SDS011;4504;48.810;9.172;2023-05-02T02:20:48;118.07;;;5.43;;
8938;SDS011;4504;48.810;9.172;2023-05-02T02:23:16;117.50;;;5.10;;
8938;SDS011;4504;48.810;9.172;2023-05-02T02:25:46;117.05;;;5.20;;
8938;SDS011;4504;48.810;9.172;2023-05-02T02:28:15;117.97;;;5.35;;
8938;SDS011;4504;48.810;9.172;2023-05-02T02:30:42;118.65;;;5.70;;
8938;SDS011;4504;48.810;9.172;2023-05-02T02:33:09;117.53;;;5.25;;
8938;SDS011;4504;48.810;9.172;2023-05-02T02:35:36;115.60;;;4.53;;
8938;SDS011;4504;48.810;9.172;2023-05-02T02:38:10;117.13;;;5.15;;
8938;SDS011;4504;48.810;9.172;2023-05-02T02:40:46;117.45;;;5.28;;
8938;SDS011;4504;48.810;9.172;2023-05-02T02:43:22;118.20;;;5.55;;
8938;SDS011;4504;48.810;9.172;2023-05-02T02:46:01;116.97;;;5.32;;
8938;SDS011;4504;48.810;9.172;2023-05-02T02:48:41;120.55;;;4.88;;
8938;SDS011;4504;48.810;9.172;2023-05-02T02:51:19;116.25;;;5.10;;
8938;SDS011;4504;48.810;9.172;2023-05-02T02:53:54;116.72;;;4.55;;
8938;SDS011;4504;48.810;9.172;2023-05-02T02:56:27;117.22;;;5.15;;
8938;SDS011;4504;48.810;9.172;2023-05-02T02:59:03;118.28;;;5.22;;
8938;SDS011;4504;48.810;9.172;2023-05-02T03:01:34;117.10;;;4.40;;
8938;SDS011;4504;48.810;9.172;2023-05-02T03:04:05;118.28;;;5.22;;
8938;SDS011;4504;48.810;9.172;2023-05-02T03:06:35;116.82;;;5.35;;
8938;SDS011;4504;48.810;9.172;2023-05-02T03:09:05;117.20;;;5.25;;
8938;SDS011;4504;48.810;9.172;2023-05-02T03:11:32;117.50;;;5.28;;
8938;SDS011;4504;48.810;9.172;2023-05-02T03:13:59;117.63;;;5.10;;
8938;SDS011;4504;48.810;9.172;2023-05-02T03:16:29;117.53;;;5.55;;
8938;SDS011;4504;48.810;9.172;2023-05-02T03:18:59;116.97;;;4.95;;
8938;SDS011;4504;48.810;9.172;2023-05-02T03:21:26;116.70;;;4.60;;
8938;SDS011;4504;48.810;9.172;2023-05-02T03:23:57;117.57;;;4.93;;
8938;SDS011;4504;48.810;9.172;2023-05-02T03:26:26;117.13;;;5.50;;
8938;SDS011;4504;48.810;9.172;2023-05-02T03:28:54;116.72;;;4.70;;
8938;SDS011;4504;48.810;9.172;2023-05-02T03:31:27;115.97;;;5.05;;
8938;SDS011;4504;48.810;9.172;2023-05-02T03:33:54;120.68;;;6.13;;
8938;SDS011;4504;48.810;9.172;2023-05-02T03:36:21;116.65;;;5.28;;
8938;SDS011;4504;48.810;9.172;2023-05-02T03:38:51;118.20;;;5.50;;
8938;SDS011;4504;48.810;9.172;2023-05-02T03:41:19;118.82;;;5.70;;
8938;SDS011;4504;48.810;9.172;2023-05-02T03:43:53;117.07;;;5.55;;
8938;SDS011;4504;48.810;9.172;2023-05-02T03:46:22;117.18;;;4.60;;
8938;SDS011;4504;48.810;9.172;2023-05-02T03:48:49;115.63;;;4.80;;
8938;SDS011;4504;48.810;9.172;2023-05-02T03:51:16;117.03;;;5.20;;
8938;SDS011;4504;48.810;9.172;2023-05-02T03:53:48;118.10;;;5.30;;
8938;SDS011;4504;48.810;9.172;2023-05-02T03:56:16;116.38;;;4.70;;
8938;SDS011;4504;48.810;9.172;2023-05-02T03:58:50;116.13;;;4.40;;
8938;SDS011;4504;48.810;9.172;2023-05-02T04:01:23;116.80;;;4.82;;
8938;SDS011;4504;48.810;9.172;2023-05-02T04:03:52;117.15;;;5.30;;
8938;SDS011;4504;48.810;9.172;2023-05-02T04:06:21;117.65;;;5.18;;
8938;SDS011;4504;48.810;9.172;2023-05-02T04:08:56;117.30;;;5.03;;
8938;SDS011;4504;48.810;9.172;2023-05-02T04:11:26;117.93;;;5.00;;
8938;SDS011;4504;48.810;9.172;2023-05-02T04:13:54;115.93;;;5.78;;
8938;SDS011;4504;48.810;9.172;2023-05-02T04:16:22;116.88;;;4.70;;
8938;SDS011;4504;48.810;9.172;2023-05-02T04:18:50;116.88;;;5.15;;
8938;SDS011;4504;48.810;9.172;2023-05-02T04:21:18;118.60;;;5.65;;
8938;SDS011;4504;48.810;9.172;2023-05-02T04:23:46;115.68;;;4.40;;
8938;SDS011;4504;48.810;9.172;2023-05-02T04:26:13;115.60;;;4.95;;
8938;SDS011;4504;48.810;9.172;2023-05-02T04:28:50;117.22;;;4.80;;
8938;SDS011;4504;48.810;9.172;2023-05-02T04:31:17;117.40;;;5.13;;
8938;SDS011;4504;48.810;9.172;2023-05-02T04:33:47;116.68;;;4.60;;
8938;SDS011;4504;48.810;9.172;2023-05-02T04:36:16;117.82;;;4.88;;
8938;SDS011;4504;48.810;9.172;2023-05-02T04:38:45;116.68;;;5.47;;
8938;SDS011;4504;48.810;9.172;2023-05-02T04:41:13;119.40;;;5.70;;
8938;SDS011;4504;48.810;9.172;2023-05-02T04:43:46;118.05;;;5.22;;
8938;SDS011;4504;48.810;9.172;2023-05-02T04:46:15;116.80;;;5.03;;
8938;SDS011;4504;48.810;9.172;2023-05-02T04:48:42;118.53;;;5.30;;
8938;SDS011;4504;48.810;9.172;2023-05-02T04:51:10;118.00;;;5.10;;
8938;SDS011;4504;48.810;9.172;2023-05-02T04:53:37;118.80;;;5.32;;
8938;SDS011;4504;48.810;9.172;2023-05-02T04:56:04;121.38;;;6.93;;
8938;SDS011;4504;48.810;9.172;2023-05-02T04:58:34;117.75;;;5.30;;
8938;SDS011;4504;48.810;9.172;2023-05-02T05:01:05;116.60;;;5.30;;
8938;SDS011;4504;48.810;9.172;2023-05-02T05:03:32;117.05;;;5.50;;
8938;SDS011;4504;48.810;9.172;2023-05-02T05:05:59;117.60;;;5.15;;
8938;SDS011;4504;48.810;9.172;2023-05-02T05:08:29;115.10;;;4.50;;
8938;SDS011;4504;48.810;9.172;2023-05-02T05:10:57;116.18;;;4.35;;
8938;SDS011;4504;48.810;9.172;2023-05-02T05:13:24;117.95;;;5.40;;
8938;SDS011;4504;48.810;9.172;2023-05-02T05:15:52;116.18;;;4.93;;
8938;SDS011;4504;48.810;9.172;2023-05-02T05:18:23;116.50;;;4.63;;
8938;SDS011;4504;48.810;9.172;2023-05-02T05:20:51;116.25;;;5.03;;
8938;SDS011;4504;48.810;9.172;2023-05-02T05:23:18;116.82;;;5.07;;
8938;SDS011;4504;48.810;9.172;2023-05-02T05:25:47;119.03;;;5.60;;
8938;SDS011;4504;48.810;9.172;2023-05-02T05:28:16;117.88;;;5.25;;
8938;SDS011;4504;48.810;9.172;2023-05-02T05:30:43;117.30;;;6.28;;
8938;SDS011;4504;48.810;9.172;2023-05-02T05:33:14;118.78;;;6.13;;
8938;SDS011;4504;48.810;9.172;2023-05-02T05:35:41;122.05;;;5.90;;
8938;SDS011;4504;48.810;9.172;2023-05-02T05:38:08;115.82;;;4.80;;
8938;SDS011;4504;48.810;9.172;2023-05-02T05:40:37;118.47;;;6.22;;
8938;SDS011;4504;48.810;9.172;2023-05-02T05:43:08;117.93;;;6.05;;
8938;SDS011;4504;48.810;9.172;2023-05-02T05:45:37;117.22;;;5.65;;
8938;SDS011;4504;48.810;9.172;2023-05-02T05:48:05;118.55;;;6.00;;
8938;SDS011;4504;48.810;9.172;2023-05-02T05:50:37;116.22;;;5.50;;
8938;SDS011;4504;48.810;9.172;2023-05-02T05:53:04;119.10;;;6.13;;
8938;SDS011;4504;48.810;9.172;2023-05-02T05:55:33;117.65;;;5.50;;
8938;SDS011;4504;48.810;9.172;2023-05-02T05:58:01;117.47;;;5.38;;
8938;SDS011;4504;48.810;9.172;2023-05-02T06:00:29;118.28;;;5.38;;
8938;SDS011;4504;48.810;9.172;2023-05-02T06:02:56;118.65;;;5.43;;
8938;SDS011;4504;48.810;9.172;2023-05-02T06:05:26;119.15;;;6.07;;
8938;SDS011;4504;48.810;9.172;2023-05-02T06:07:53;118.75;;;5.88;;
8938;SDS011;4504;48.810;9.172;2023-05-02T06:10:20;118.70;;;6.53;;
8938;SDS011;4504;48.810;9.172;2023-05-02T06:12:47;120.57;;;6.32;;
8938;SDS011;4504;48.810;9.172;2023-05-02T06:15:16;117.63;;;5.93;;
8938;SDS011;4504;48.810;9.172;2023-05-02T06:17:44;120.03;;;6.65;;
8938;SDS011;4504;48.810;9.172;2023-05-02T06:20:11;118.53;;;5.95;;
8938;SDS011;4504;48.810;9.172;2023-05-02T06:22:38;120.63;;;5.40;;
8938;SDS011;4504;48.810;9.172;2023-05-02T06:25:05;122.90;;;6.60;;
8938;SDS011;4504;48.810;9.172;2023-05-02T06:27:33;118.13;;;5.93;;
8938;SDS011;4504;48.810;9.172;2023-05-02T06:30:00;118.53;;;6.00;;
8938;SDS011;4504;48.810;9.172;2023-05-02T06:32:28;117.80;;;6.00;;
8938;SDS011;4504;48.810;9.172;2023-05-02T06:34:57;121.47;;;7.97;;
8938;SDS011;4504;48.810;9.172;2023-05-02T06:37:24;118.93;;;6.88;;
8938;SDS011;4504;48.810;9.172;2023-05-02T06:39:51;121.45;;;7.20;;
8938;SDS011;4504;48.810;9.172;2023-05-02T06:42:18;119.07;;;6.82;;
8938;SDS011;4504;48.810;9.172;2023-05-02T06:44:45;120.82;;;6.80;;
8938;SDS011;4504;48.810;9.172;2023-05-02T06:47:12;117.28;;;5.97;;
8938;SDS011;4504;48.810;9.172;2023-05-02T06:49:39;120.60;;;6.90;;
8938;SDS011;4504;48.810;9.172;2023-05-02T06:52:07;118.22;;;6.10;;
8938;SDS011;4504;48.810;9.172;2023-05-02T06:54:34;120.00;;;7.10;;
8938;SDS011;4504;48.810;9.172;2023-05-02T06:57:01;121.65;;;7.00;;
8938;SDS011;4504;48.810;9.172;2023-05-02T06:59:29;122.32;;;7.35;;
8938;SDS011;4504;48.810;9.172;2023-05-02T07:01:56;126.32;;;7.32;;
8938;SDS011;4504;48.810;9.172;2023-05-02T07:04:23;121.25;;;7.72;;
8938;SDS011;4504;48.810;9.172;2023-05-02T07:06:50;122.03;;;7.75;;
8938;SDS011;4504;48.810;9.172;2023-05-02T07:09:18;122.88;;;9.13;;
8938;SDS011;4504;48.810;9.172;2023-05-02T07:11:45;121.25;;;7.82;;
8938;SDS011;4504;48.810;9.172;2023-05-02T07:14:12;122.53;;;7.60;;
8938;SDS011;4504;48.810;9.172;2023-05-02T07:16:39;124.35;;;8.75;;
8938;SDS011;4504;48.810;9.172;2023-05-02T07:19:06;121.03;;;7.70;;
8938;SDS011;4504;48.810;9.172;2023-05-02T07:21:33;123.72;;;8.55;;
8938;SDS011;4504;48.810;9.172;2023-05-02T07:24:00;120.03;;;7.55;;
8938;SDS011;4504;48.810;9.172;2023-05-02T07:26:28;121.63;;;9.00;;
8938;SDS011;4504;48.810;9.172;2023-05-02T07:28:55;123.85;;;9.45;;
8938;SDS011;4504;48.810;9.172;2023-05-02T07:31:22;122.97;;;8.65;;
8938;SDS011;4504;48.810;9.172;2023-05-02T07:33:50;122.13;;;8.55;;
8938;SDS011;4504;48.810;9.172;2023-05-02T07:36:16;122.57;;;8.40;;
8938;SDS011;4504;48.810;9.172;2023-05-02T07:38:43;121.57;;;9.27;;
8938;SDS011;4504;48.810;9.172;2023-05-02T07:41:12;124.22;;;8.85;;
8938;SDS011;4504;48.810;9.172;2023-05-02T07:43:40;123.25;;;10.00;;
8938;SDS011;4504;48.810;9.172;2023-05-02T07:46:07;124.93;;;8.95;;
8938;SDS011;4504;48.810;9.172;2023-05-02T07:48:35;123.50;;;9.27;;
8938;SDS011;4504;48.810;9.172;2023-05-02T07:51:05;122.05;;;9.75;;
8938;SDS011;4504;48.810;9.172;2023-05-02T07:53:33;123.38;;;8.65;;
8938;SDS011;4504;48.810;9.172;2023-05-02T07:56:01;121.85;;;9.15;;
8938;SDS011;4504;48.810;9.172;2023-05-02T07:58:29;121.68;;;8.23;;
8938;SDS011;4504;48.810;9.172;2023-05-02T08:00:57;123.28;;;9.02;;
8938;SDS011;4504;48.810;9.172;2023-05-02T08:03:24;125.60;;;9.82;;
8938;SDS011;4504;48.810;9.172;2023-05-02T08:05:52;123.63;;;9.88;;
8938;SDS011;4504;48.810;9.172;2023-05-02T08:08:19;138.85;;;10.48;;
8938;SDS011;4504;48.810;9.172;2023-05-02T08:10:46;129.85;;;10.23;;
8938;SDS011;4504;48.810;9.172;2023-05-02T08:13:15;125.05;;;10.38;;
8938;SDS011;4504;48.810;9.172;2023-05-02T08:15:42;123.50;;;9.18;;
8938;SDS011;4504;48.810;9.172;2023-05-02T08:18:11;122.32;;;9.05;;
8938;SDS011;4504;48.810;9.172;2023-05-02T08:20:38;124.45;;;9.35;;
8938;SDS011;4504;48.810;9.172;2023-05-02T08:23:05;129.95;;;9.95;;
8938;SDS011;4504;48.810;9.172;2023-05-02T08:25:32;126.82;;;9.90;;
8938;SDS011;4504;48.810;9.172;2023-05-02T08:27:59;126.00;;;9.73;;
8938;SDS011;4504;48.810;9.172;2023-05-02T08:30:26;126.53;;;9.68;;
8938;SDS011;4504;48.810;9.172;2023-05-02T08:32:53;122.57;;;8.68;;
8938;SDS011;4504;48.810;9.172;2023-05-02T08:35:21;127.60;;;10.07;;
8938;SDS011;4504;48.810;9.172;2023-05-02T08:37:48;124.75;;;10.18;;
8938;SDS011;4504;48.810;9.172;2023-05-02T08:40:16;125.88;;;10.40;;
8938;SDS011;4504;48.810;9.172;2023-05-02T08:42:43;124.72;;;10.23;;
8938;SDS011;4504;48.810;9.172;2023-05-02T08:45:11;123.95;;;10.15;;
8938;SDS011;4504;48.810;9.172;2023-05-02T08:47:39;125.50;;;9.23;;
8938;SDS011;4504;48.810;9.172;2023-05-02T08:50:07;121.82;;;9.70;;
8938;SDS011;4504;48.810;9.172;2023-05-02T08:52:37;131.20;;;10.07;;
8938;SDS011;4504;48.810;9.172;2023-05-02T08:55:05;123.28;;;9.27;;
8938;SDS011;4504;48.810;9.172;2023-05-02T08:57:32;124.28;;;8.63;;
8938;SDS011;4504;48.810;9.172;2023-05-02T08:59:59;123.68;;;9.40;;
8938;SDS011;4504;48.810;9.172;2023-05-02T09:02:33;122.20;;;9.85;;
8938;SDS011;4504;48.810;9.172;2023-05-02T09:05:12;122.13;;;9.38;;
8938;SDS011;4504;48.810;9.172;2023-05-02T09:07:47;122.93;;;8.70;;
8938;SDS011;4504;48.810;9.172;2023-05-02T09:10:14;121.55;;;9.23;;
8938;SDS011;4504;48.810;9.172;2023-05-02T09:12:41;123.13;;;8.95;;
8938;SDS011;4504;48.810;9.172;2023-05-02T09:15:08;121.22;;;9.07;;
8938;SDS011;4504;48.810;9.172;2023-05-02T09:17:40;121.13;;;8.20;;
8938;SDS011;4504;48.810;9.172;2023-05-02T09:20:09;120.30;;;8.60;;
8938;SDS011;4504;48.810;9.172;2023-05-02T09:22:36;121.65;;;8.98;;
8938;SDS011;4504;48.810;9.172;2023-05-02T09:25:06;120.40;;;9.38;;
8938;SDS011;4504;48.810;9.172;2023-05-02T09:27:49;123.80;;;9.88;;
8938;SDS011;4504;48.810;9.172;2023-05-02T09:30:18;123.18;;;9.30;;
8938;SDS011;4504;48.810;9.172;2023-05-02T09:32:47;123.13;;;9.15;;
8938;SDS011;4504;48.810;9.172;2023-05-02T09:35:16;121.78;;;9.07;;
8938;SDS011;4504;48.810;9.172;2023-05-02T09:37:51;125.22;;;10.02;;
8938;SDS011;4504;48.810;9.172;2023-05-02T09:40:20;120.60;;;9.45;;
8938;SDS011;4504;48.810;9.172;2023-05-02T09:42:48;121.22;;;9.82;;
8938;SDS011;4504;48.810;9.172;2023-05-02T09:45:19;122.18;;;9.50;;
8938;SDS011;4504;48.810;9.172;2023-05-02T09:47:47;122.63;;;9.38;;
8938;SDS011;4504;48.810;9.172;2023-05-02T09:50:34;123.03;;;9.27;;
8938;SDS011;4504;48.810;9.172;2023-05-02T09:53:02;121.32;;;9.60;;
8938;SDS011;4504;48.810;9.172;2023-05-02T09:55:31;122.25;;;9.98;;
8938;SDS011;4504;48.810;9.172;2023-05-02T09:57:58;122.03;;;9.13;;
8938;SDS011;4504;48.810;9.172;2023-05-02T10:00:39;119.50;;;8.82;;
8938;SDS011;4504;48.810;9.172;2023-05-02T10:03:07;122.22;;;9.10;;
8938;SDS011;4504;48.810;9.172;2023-05-02T10:05:35;120.30;;;9.05;;
8938;SDS011;4504;48.810;9.172;2023-05-02T10:08:03;124.30;;;9.27;;
8938;SDS011;4504;48.810;9.172;2023-05-02T10:10:35;121.88;;;10.13;;
8938;SDS011;4504;48.810;9.172;2023-05-02T10:13:03;130.00;;;9.90;;
8938;SDS011;4504;48.810;9.172;2023-05-02T10:15:31;119.63;;;8.43;;
8938;SDS011;4504;48.810;9.172;2023-05-02T10:18:00;121.68;;;9.30;;
8938;SDS011;4504;48.810;9.172;2023-05-02T10:20:51;124.50;;;8.90;;
8938;SDS011;4504;48.810;9.172;2023-05-02T10:23:24;129.75;;;10.10;;
8938;SDS011;4504;48.810;9.172;2023-05-02T10:25:52;117.72;;;8.65;;
8938;SDS011;4504;48.810;9.172;2023-05-02T10:28:19;120.05;;;8.52;;
8938;SDS011;4504;48.810;9.172;2023-05-02T10:30:46;119.22;;;8.15;;
8938;SDS011;4504;48.810;9.172;2023-05-02T10:33:15;119.53;;;7.55;;
8938;SDS011;4504;48.810;9.172;2023-05-02T10:35:43;117.97;;;7.35;;
8938;SDS011;4504;48.810;9.172;2023-05-02T10:38:12;117.57;;;7.67;;
8938;SDS011;4504;48.810;9.172;2023-05-02T10:40:40;115.85;;;7.20;;
8938;SDS011;4504;48.810;9.172;2023-05-02T10:43:14;119.85;;;9.05;;
8938;SDS011;4504;48.810;9.172;2023-05-02T10:45:41;118.05;;;7.65;;
8938;SDS011;4504;48.810;9.172;2023-05-02T10:48:12;118.63;;;8.60;;
8938;SDS011;4504;48.810;9.172;2023-05-02T10:50:44;117.97;;;8.35;;
8938;SDS011;4504;48.810;9.172;2023-05-02T10:53:23;116.80;;;7.73;;
8938;SDS011;4504;48.810;9.172;2023-05-02T10:56:07;118.17;;;7.63;;
8938;SDS011;4504;48.810;9.172;2023-05-02T10:58:42;115.67;;;7.07;;
8938;SDS011;4504;48.810;9.172;2023-05-02T11:04:02;115.57;;;7.50;;
8938;SDS011;4504;48.810;9.172;2023-05-02T11:06:30;115.77;;;7.00;;
8938;SDS011;4504;48.810;9.172;2023-05-02T11:12:01;116.05;;;7.38;;
8938;SDS011;4504;48.810;9.172;2023-05-02T11:14:43;116.88;;;8.02;;
8938;SDS011;4504;48.810;9.172;2023-05-02T11:17:16;118.53;;;7.75;;
8938;SDS011;4504;48.810;9.172;2023-05-02T11:22:51;114.00;;;7.17;;
8938;SDS011;4504;48.810;9.172;2023-05-02T11:31:05;114.60;;;6.33;;
8938;SDS011;4504;48.810;9.172;2023-05-02T11:33:33;114.70;;;7.17;;
8938;SDS011;4504;48.810;9.172;2023-05-02T11:36:00;117.07;;;7.50;;
8938;SDS011;4504;48.810;9.172;2023-05-02T11:38:33;118.70;;;7.97;;
8938;SDS011;4504;48.810;9.172;2023-05-02T11:41:03;115.47;;;6.93;;
8938;SDS011;4504;48.810;9.172;2023-05-02T11:43:30;115.07;;;7.40;;
8938;SDS011;4504;48.810;9.172;2023-05-02T11:45:58;117.00;;;6.47;;
8938;SDS011;4504;48.810;9.172;2023-05-02T11:48:25;114.13;;;6.93;;
8938;SDS011;4504;48.810;9.172;2023-05-02T11:50:53;115.80;;;7.53;;
8938;SDS011;4504;48.810;9.172;2023-05-02T11:53:22;115.27;;;7.07;;
8938;SDS011;4504;48.810;9.172;2023-05-02T11:55:51;116.00;;;7.57;;
8938;SDS011;4504;48.810;9.172;2023-05-02T11:58:20;118.70;;;7.83;;
8938;SDS011;4504;48.810;9.172;2023-05-02T12:00:52;119.40;;;8.70;;
8938;SDS011;4504;48.810;9.172;2023-05-02T12:03:19;115.37;;;7.27;;
8938;SDS011;4504;48.810;9.172;2023-05-02T12:05:48;117.47;;;7.77;;
8938;SDS011;4504;48.810;9.172;2023-05-02T12:08:19;120.30;;;8.47;;
8938;SDS011;4504;48.810;9.172;2023-05-02T12:10:47;116.27;;;6.90;;
8938;SDS011;4504;48.810;9.172;2023-05-02T12:13:15;116.23;;;8.37;;
8938;SDS011;4504;48.810;9.172;2023-05-02T12:15:44;113.83;;;6.87;;
8938;SDS011;4504;48.810;9.172;2023-05-02T12:18:11;114.70;;;7.03;;
8938;SDS011;4504;48.810;9.172;2023-05-02T12:20:39;115.87;;;6.77;;
8938;SDS011;4504;48.810;9.172;2023-05-02T12:23:06;113.97;;;6.40;;
8938;SDS011;4504;48.810;9.172;2023-05-02T12:25:37;114.87;;;6.60;;
8938;SDS011;4504;48.810;9.172;2023-05-02T12:28:05;117.63;;;8.47;;
8938;SDS011;4504;48.810;9.172;2023-05-02T12:30:33;119.67;;;7.87;;
8938;SDS011;4504;48.810;9.172;2023-05-02T12:33:04;120.10;;;8.17;;
8938;SDS011;4504;48.810;9.172;2023-05-02T12:35:32;119.17;;;8.60;;
8938;SDS011;4504;48.810;9.172;2023-05-02T12:38:07;119.45;;;8.80;;
8938;SDS011;4504;48.810;9.172;2023-05-02T12:40:36;120.35;;;8.98;;
8938;SDS011;4504;48.810;9.172;2023-05-02T12:43:04;120.53;;;10.10;;
8938;SDS011;4504;48.810;9.172;2023-05-02T12:45:35;122.25;;;10.55;;
8938;SDS011;4504;48.810;9.172;2023-05-02T12:48:17;120.10;;;8.70;;
8938;SDS011;4504;48.810;9.172;2023-05-02T12:50:45;124.57;;;9.30;;
8938;SDS011;4504;48.810;9.172;2023-05-02T12:53:13;119.60;;;8.38;;
8938;SDS011;4504;48.810;9.172;2023-05-02T12:55:40;118.57;;;7.13;;
8938;SDS011;4504;48.810;9.172;2023-05-02T12:58:08;117.80;;;7.57;;
8938;SDS011;4504;48.810;9.172;2023-05-02T13:00:38;116.30;;;7.20;;
8938;SDS011;4504;48.810;9.172;2023-05-02T13:03:06;118.27;;;8.23;;
8938;SDS011;4504;48.810;9.172;2023-05-02T13:05:35;118.97;;;8.33;;
8938;SDS011;4504;48.810;9.172;2023-05-02T13:08:02;116.53;;;7.10;;
8938;SDS011;4504;48.810;9.172;2023-05-02T13:10:30;119.10;;;8.40;;
8938;SDS011;4504;48.810;9.172;2023-05-02T13:12:57;118.20;;;8.00;;
8938;SDS011;4504;48.810;9.172;2023-05-02T13:15:25;117.23;;;7.53;;
8938;SDS011;4504;48.810;9.172;2023-05-02T13:17:53;117.27;;;7.07;;
8938;SDS011;4504;48.810;9.172;2023-05-02T13:20:20;115.90;;;6.87;;
8938;SDS011;4504;48.810;9.172;2023-05-02T13:22:49;115.97;;;6.03;;
8938;SDS011;4504;48.810;9.172;2023-05-02T13:25:15;114.00;;;6.60;;
8938;SDS011;4504;48.810;9.172;2023-05-02T13:27:42;117.67;;;7.63;;
8938;SDS011;4504;48.810;9.172;2023-05-02T13:30:10;117.17;;;7.87;;
8938;SDS011;4504;48.810;9.172;2023-05-02T13:32:37;114.13;;;6.73;;
8938;SDS011;4504;48.810;9.172;2023-05-02T13:35:05;115.57;;;7.20;;
8938;SDS011;4504;48.810;9.172;2023-05-02T13:37:33;118.03;;;7.03;;
8938;SDS011;4504;48.810;9.172;2023-05-02T13:40:01;114.17;;;7.00;;
8938;SDS011;4504;48.810;9.172;2023-05-02T13:42:29;117.30;;;5.90;;
8938;SDS011;4504;48.810;9.172;2023-05-02T13:44:56;116.20;;;5.73;;
8938;SDS011;4504;48.810;9.172;2023-05-02T13:47:23;115.60;;;6.37;;
8938;SDS011;4504;48.810;9.172;2023-05-02T13:49:50;115.80;;;6.63;;
8938;SDS011;4504;48.810;9.172;2023-05-02T13:52:17;114.80;;;5.83;;
8938;SDS011;4504;48.810;9.172;2023-05-02T13:54:44;118.97;;;7.87;;
8938;SDS011;4504;48.810;9.172;2023-05-02T13:57:12;115.77;;;7.00;;
8938;SDS011;4504;48.810;9.172;2023-05-02T13:59:39;124.97;;;7.70;;
8938;SDS011;4504;48.810;9.172;2023-05-02T14:02:06;124.03;;;8.10;;
8938;SDS011;4504;48.810;9.172;2023-05-02T14:04:33;118.27;;;7.37;;
8938;SDS011;4504;48.810;9.172;2023-05-02T14:07:00;118.17;;;7.23;;
8938;SDS011;4504;48.810;9.172;2023-05-02T14:09:27;116.73;;;6.90;;
8938;SDS011;4504;48.810;9.172;2023-05-02T14:11:54;119.30;;;7.30;;
8938;SDS011;4504;48.810;9.172;2023-05-02T14:14:24;122.93;;;5.90;;
8938;SDS011;4504;48.810;9.172;2023-05-02T14:16:51;116.57;;;5.70;;
8938;SDS011;4504;48.810;9.172;2023-05-02T14:19:18;111.10;;;4.10;;
8938;SDS011;4504;48.810;9.172;2023-05-02T14:21:45;113.53;;;4.37;;
8938;SDS011;4504;48.810;9.172;2023-05-02T14:24:12;114.70;;;5.60;;
8938;SDS011;4504;48.810;9.172;2023-05-02T14:26:40;113.80;;;4.87;;
8938;SDS011;4504;48.810;9.172;2023-05-02T14:29:07;113.17;;;4.90;;
8938;SDS011;4504;48.810;9.172;2023-05-02T14:31:36;112.80;;;5.10;;
8938;SDS011;4504;48.810;9.172;2023-05-02T14:34:02;113.20;;;6.03;;
8938;SDS011;4504;48.810;9.172;2023-05-02T14:36:29;111.07;;;4.20;;
8938;SDS011;4504;48.810;9.172;2023-05-02T14:38:57;111.63;;;4.17;;
8938;SDS011;4504;48.810;9.172;2023-05-02T14:41:24;110.67;;;4.27;;
8938;SDS011;4504;48.810;9.172;2023-05-02T14:43:51;110.80;;;4.50;;
8938;SDS011;4504;48.810;9.172;2023-05-02T14:46:18;110.20;;;5.03;;
8938;SDS011;4504;48.810;9.172;2023-05-02T14:48:47;112.33;;;5.10;;
8938;SDS011;4504;48.810;9.172;2023-05-02T14:51:14;110.17;;;4.93;;
8938;SDS011;4504;48.810;9.172;2023-05-02T14:53:41;112.53;;;4.60;;
8938;SDS011;4504;48.810;9.172;2023-05-02T14:56:11;111.10;;;4.50;;
8938;SDS011;4504;48.810;9.172;2023-05-02T14:58:40;115.23;;;5.13;;
8938;SDS011;4504;48.810;9.172;2023-05-02T15:01:13;110.10;;;5.03;;
8938;SDS011;4504;48.810;9.172;2023-05-02T15:03:41;112.17;;;4.90;;
8938;SDS011;4504;48.810;9.172;2023-05-02T15:06:11;115.60;;;4.80;;
8938;SDS011;4504;48.810;9.172;2023-05-02T15:08:38;108.50;;;4.27;;
